Time;durP1;ratioP1;P1;durP2;ratioP2;P2;SDS_P1;SDS_P2;PMS_P1;PMS_P2;Temp;Humidity;BMP_temperature;BMP_pressure;BME280_temperature;BME280_humidity;BME280_pressure;Samples;Min_cycle;Max_cycle;Signal;HPM_P1;HPM_P2
2021/10/17 00:00:18;;;;;;;43.97;21.50;;;7.30;97.20;;;;;;5036987;28;20439;-78
2021/10/17 00:02:48;;;;;;;43.50;21.27;;;7.40;97.30;;;;;;5035468;28;21076;-76
2021/10/17 00:05:16;;;;;;;40.33;19.43;;;7.50;97.30;;;;;;5037024;28;20436;-78
2021/10/17 00:07:42;;;;;;;39.40;21.20;;;7.50;97.00;;;;;;5037254;28;20497;-75
2021/10/17 00:10:10;;;;;;;43.90;19.50;;;7.50;97.00;;;;;;5034814;28;20426;-78
2021/10/17 00:12:37;;;;;;;37.77;20.33;;;7.60;97.00;;;;;;5035777;28;20451;-78
2021/10/17 00:15:04;;;;;;;46.20;22.20;;;7.60;96.80;;;;;;5035288;28;21236;-76
2021/10/17 00:17:30;;;;;;;42.00;20.53;;;7.70;96.80;;;;;;5033492;28;21029;-76
2021/10/17 00:19:56;;;;;;;40.77;20.73;;;7.70;96.60;;;;;;5035309;28;20507;-76
2021/10/17 00:22:22;;;;;;;37.87;20.70;;;7.70;96.30;;;;;;5034745;28;20248;-77
2021/10/17 00:24:47;;;;;;;42.17;20.33;;;7.70;96.00;;;;;;5033072;28;20189;-78
2021/10/17 00:27:13;;;;;;;39.07;19.20;;;7.80;95.70;;;;;;5033450;28;20368;-76
2021/10/17 00:29:39;;;;;;;42.03;19.23;;;7.80;95.30;;;;;;5035837;28;20250;-76
2021/10/17 00:32:08;;;;;;;37.37;19.23;;;7.80;94.80;;;;;;5037228;28;20285;-78
2021/10/17 00:34:34;;;;;;;38.93;20.13;;;7.80;94.70;;;;;;5035520;28;20780;-76
2021/10/17 00:37:00;;;;;;;40.83;19.97;;;7.90;94.60;;;;;;5034891;28;20432;-76
2021/10/17 00:39:26;;;;;;;31.83;17.93;;;7.80;94.60;;;;;;5038497;28;20952;-77
2021/10/17 00:41:52;;;;;;;37.80;20.40;;;7.90;94.30;;;;;;5034857;28;20439;-76
2021/10/17 00:44:23;;;;;;;38.50;18.97;;;7.80;94.00;;;;;;5034802;28;20739;-76
2021/10/17 00:46:50;;;;;;;32.60;17.70;;;7.70;94.20;;;;;;5034916;28;20505;-76
2021/10/17 00:49:17;;;;;;;37.90;18.83;;;7.70;94.50;;;;;;5037838;28;20427;-75
2021/10/17 00:51:44;;;;;;;35.07;18.27;;;7.70;94.50;;;;;;5040135;28;20444;-76
2021/10/17 00:54:12;;;;;;;36.07;18.83;;;7.70;94.60;;;;;;5038995;28;20434;-76
2021/10/17 00:56:41;;;;;;;37.67;18.97;;;7.70;94.70;;;;;;5034751;28;20420;-76
2021/10/17 00:59:08;;;;;;;39.67;20.60;;;7.70;94.70;;;;;;5035213;28;20864;-77
2021/10/17 01:01:36;;;;;;;38.70;20.80;;;7.70;94.80;;;;;;5032414;28;20475;-77
2021/10/17 01:04:02;;;;;;;39.97;19.70;;;7.70;94.90;;;;;;5035168;28;20471;-75
2021/10/17 01:06:28;;;;;;;38.37;20.20;;;7.70;95.20;;;;;;5034924;28;20432;-75
2021/10/17 01:08:55;;;;;;;42.63;19.67;;;7.70;95.30;;;;;;5034617;28;20983;-75
2021/10/17 01:11:21;;;;;;;34.23;20.13;;;7.70;95.40;;;;;;5032708;28;20444;-77
2021/10/17 01:13:46;;;;;;;41.40;21.07;;;7.70;95.40;;;;;;5032034;28;20566;-75
2021/10/17 01:16:12;;;;;;;39.17;19.90;;;7.70;95.40;;;;;;5032807;28;20181;-76
2021/10/17 01:18:38;;;;;;;34.23;18.47;;;7.70;95.40;;;;;;5032930;28;20586;-77
2021/10/17 01:21:04;;;;;;;33.10;17.67;;;7.60;95.20;;;;;;5031176;28;20217;-78
2021/10/17 01:23:31;;;;;;;37.13;18.63;;;7.70;94.90;;;;;;5032755;28;20208;-76
2021/10/17 01:25:57;;;;;;;37.83;19.13;;;7.60;94.70;;;;;;5033348;28;20527;-77
2021/10/17 01:28:23;;;;;;;47.47;22.87;;;7.60;94.70;;;;;;5030917;28;20420;-76
2021/10/17 01:30:50;;;;;;;45.17;23.40;;;7.50;94.90;;;;;;5031121;28;20440;-76
2021/10/17 01:33:15;;;;;;;46.43;23.20;;;7.50;95.20;;;;;;5032374;28;20863;-77
2021/10/17 01:35:41;;;;;;;41.63;20.27;;;7.50;95.40;;;;;;5032464;28;20519;-75
2021/10/17 01:38:07;;;;;;;43.73;21.70;;;7.60;95.80;;;;;;5032308;28;20208;-79
2021/10/17 01:40:33;;;;;;;43.43;21.87;;;7.50;95.80;;;;;;5031546;28;20221;-76
2021/10/17 01:42:59;;;;;;;44.90;21.57;;;7.60;96.00;;;;;;5033135;28;20483;-76
2021/10/17 01:45:25;;;;;;;46.40;23.33;;;7.60;96.10;;;;;;5031985;28;20498;-76
2021/10/17 01:47:53;;;;;;;41.20;20.53;;;7.60;96.10;;;;;;5033345;28;20808;-76
2021/10/17 01:50:20;;;;;;;40.83;19.50;;;7.60;96.20;;;;;;5031787;28;20423;-76
2021/10/17 01:52:46;;;;;;;45.23;21.90;;;7.70;96.30;;;;;;5033072;28;20443;-78
2021/10/17 01:55:12;;;;;;;54.23;23.73;;;7.70;96.30;;;;;;5033258;28;20428;-77
2021/10/17 01:57:38;;;;;;;40.97;21.90;;;7.70;96.50;;;;;;5034629;28;20430;-77
2021/10/17 02:00:07;;;;;;;54.43;24.73;;;7.70;96.60;;;;;;5045383;28;20427;-78
2021/10/17 02:02:32;;;;;;;46.53;21.90;;;7.70;96.70;;;;;;5042795;28;20470;-78
2021/10/17 02:04:59;;;;;;;42.57;22.10;;;7.70;96.90;;;;;;5038196;28;20650;-77
2021/10/17 02:07:25;;;;;;;45.03;23.00;;;7.70;97.00;;;;;;5041615;28;20420;-76
2021/10/17 02:09:50;;;;;;;42.77;22.20;;;7.70;97.20;;;;;;5043147;28;20426;-76
2021/10/17 02:12:21;;;;;;;38.93;21.17;;;7.70;97.40;;;;;;5041239;28;20479;-76
2021/10/17 02:14:47;;;;;;;41.80;20.70;;;7.60;97.40;;;;;;5037095;28;20567;-75
2021/10/17 02:17:13;;;;;;;43.10;21.67;;;7.70;97.30;;;;;;5039694;28;20451;-78
2021/10/17 02:19:39;;;;;;;53.30;22.80;;;7.60;97.30;;;;;;5043584;28;20420;-75
2021/10/17 02:22:05;;;;;;;44.27;21.07;;;7.50;97.30;;;;;;5040251;28;20443;-75
2021/10/17 02:24:31;;;;;;;48.97;22.13;;;7.50;97.50;;;;;;5040158;28;20189;-76
2021/10/17 02:26:56;;;;;;;46.40;23.70;;;7.50;97.50;;;;;;5039916;28;20447;-75
2021/10/17 02:29:22;;;;;;;43.17;22.80;;;7.50;97.50;;;;;;5036564;28;20181;-78
2021/10/17 02:31:48;;;;;;;45.63;21.57;;;7.50;97.70;;;;;;5036295;28;20823;-76
2021/10/17 02:34:14;;;;;;;46.53;21.10;;;7.50;97.70;;;;;;5037495;28;20235;-76
2021/10/17 02:36:39;;;;;;;37.83;20.70;;;7.40;97.70;;;;;;5034916;28;20547;-76
2021/10/17 02:39:05;;;;;;;36.73;20.40;;;7.40;97.80;;;;;;5032593;28;20201;-76
2021/10/17 02:41:32;;;;;;;43.03;21.90;;;7.50;97.80;;;;;;5033146;28;20215;-75
2021/10/17 02:43:59;;;;;;;47.73;23.67;;;7.50;97.80;;;;;;5032945;28;20213;-76
2021/10/17 02:46:25;;;;;;;45.67;24.90;;;7.50;97.90;;;;;;5030517;28;20930;-76
2021/10/17 02:48:51;;;;;;;38.03;20.97;;;7.50;97.90;;;;;;5032928;28;20435;-76
2021/10/17 02:51:16;;;;;;;42.40;20.33;;;7.50;97.80;;;;;;5036819;28;20509;-77
2021/10/17 02:53:42;;;;;;;36.60;20.10;;;7.60;97.80;;;;;;5032107;28;20192;-77
2021/10/17 02:56:08;;;;;;;40.73;22.50;;;7.60;97.70;;;;;;5030767;28;20280;-75
2021/10/17 02:58:34;;;;;;;39.43;19.90;;;7.70;97.40;;;;;;5030764;28;20608;-77
2021/10/17 03:00:59;;;;;;;38.17;20.70;;;7.70;97.40;;;;;;5032131;28;20240;-76
2021/10/17 03:03:27;;;;;;;36.10;19.80;;;7.70;97.50;;;;;;5038550;28;20713;-75
2021/10/17 03:05:52;;;;;;;33.20;19.63;;;7.70;97.60;;;;;;5037291;28;20195;-76
2021/10/17 03:08:18;;;;;;;35.97;20.23;;;7.70;97.60;;;;;;5039224;28;20681;-76
2021/10/17 03:10:44;;;;;;;31.27;18.07;;;7.80;97.20;;;;;;5038356;28;20184;-76
2021/10/17 03:13:09;;;;;;;36.83;19.00;;;7.90;96.90;;;;;;5038519;28;20275;-75
2021/10/17 03:15:36;;;;;;;33.33;17.57;;;7.90;96.60;;;;;;5038421;28;20231;-75
2021/10/17 03:18:02;;;;;;;41.77;20.50;;;7.90;96.30;;;;;;5032013;28;20188;-76
2021/10/17 03:20:27;;;;;;;31.70;18.80;;;7.90;96.10;;;;;;5033407;28;21083;-76
2021/10/17 03:22:53;;;;;;;36.93;18.60;;;8.00;96.00;;;;;;5039010;28;20208;-77
2021/10/17 03:25:19;;;;;;;34.10;18.93;;;8.00;96.00;;;;;;5035286;28;20243;-76
2021/10/17 03:27:45;;;;;;;32.23;18.30;;;8.00;95.90;;;;;;5032024;28;20181;-76
2021/10/17 03:30:11;;;;;;;32.23;18.17;;;8.00;95.90;;;;;;5037345;28;20210;-76
2021/10/17 03:32:36;;;;;;;37.20;18.63;;;8.00;95.90;;;;;;5034981;28;20535;-77
2021/10/17 03:35:03;;;;;;;31.93;18.00;;;8.00;95.80;;;;;;5037490;28;20251;-76
2021/10/17 03:37:33;;;;;;;41.50;20.80;;;8.00;95.70;;;;;;5028935;28;20216;-76
2021/10/17 03:39:59;;;;;;;36.03;20.80;;;7.90;95.60;;;;;;5036169;28;20550;-73
2021/10/17 03:42:25;;;;;;;35.30;18.90;;;7.90;95.60;;;;;;5036722;28;20467;-76
2021/10/17 03:44:51;;;;;;;34.00;18.67;;;7.80;95.60;;;;;;5036183;28;20499;-76
2021/10/17 03:47:17;;;;;;;30.03;17.33;;;7.90;95.60;;;;;;5035964;28;20492;-76
2021/10/17 03:49:43;;;;;;;35.30;19.70;;;7.80;95.60;;;;;;5036133;28;20197;-74
2021/10/17 03:52:09;;;;;;;35.50;18.50;;;7.80;95.60;;;;;;5036389;28;20205;-75
2021/10/17 03:54:35;;;;;;;29.87;15.83;;;7.80;95.60;;;;;;5038734;28;20431;-75
2021/10/17 03:57:00;;;;;;;32.43;18.70;;;7.80;95.70;;;;;;5038793;28;20183;-76
2021/10/17 03:59:26;;;;;;;29.90;17.87;;;7.80;95.60;;;;;;5039079;28;20419;-76
2021/10/17 04:01:52;;;;;;;33.60;18.60;;;7.80;95.50;;;;;;5037209;28;20215;-77
2021/10/17 04:04:18;;;;;;;36.77;19.07;;;7.80;95.60;;;;;;5039408;28;20287;-77
2021/10/17 04:06:43;;;;;;;33.67;18.67;;;7.80;95.60;;;;;;5036515;28;20193;-76
2021/10/17 04:09:09;;;;;;;37.53;18.93;;;7.80;95.70;;;;;;5035758;28;20190;-77
2021/10/17 04:11:35;;;;;;;31.37;18.20;;;7.70;95.60;;;;;;5035457;28;20193;-76
2021/10/17 04:14:01;;;;;;;35.30;18.80;;;7.70;95.90;;;;;;5035463;28;20450;-76
2021/10/17 04:16:27;;;;;;;37.40;20.80;;;7.80;96.00;;;;;;5034153;28;20220;-76
2021/10/17 04:18:53;;;;;;;33.37;19.10;;;7.70;96.00;;;;;;5037634;28;20196;-76
2021/10/17 04:21:19;;;;;;;32.47;16.87;;;7.70;96.20;;;;;;5035314;28;20935;-76
2021/10/17 04:23:45;;;;;;;36.00;19.33;;;7.70;96.10;;;;;;5034311;28;20547;-77
2021/10/17 04:26:10;;;;;;;32.90;17.93;;;7.70;96.00;;;;;;5032031;28;20793;-77
2021/10/17 04:28:36;;;;;;;27.33;15.83;;;7.70;96.00;;;;;;5033746;28;20219;-77
2021/10/17 04:31:02;;;;;;;31.40;17.53;;;7.80;95.90;;;;;;5034312;28;20212;-78
2021/10/17 04:33:28;;;;;;;32.30;16.73;;;7.80;95.60;;;;;;5035039;28;21068;-77
2021/10/17 04:35:53;;;;;;;30.27;17.57;;;7.80;95.50;;;;;;5033899;28;20193;-76
2021/10/17 04:38:19;;;;;;;33.10;17.70;;;7.80;95.30;;;;;;5036366;28;20205;-78
2021/10/17 04:40:45;;;;;;;33.67;17.30;;;7.70;95.50;;;;;;5034783;28;20272;-76
2021/10/17 04:43:14;;;;;;;33.93;18.93;;;7.70;95.50;;;;;;5039272;28;20288;-77
2021/10/17 04:45:43;;;;;;;28.80;17.47;;;7.70;95.50;;;;;;5042477;28;20181;-77
2021/10/17 04:48:09;;;;;;;29.60;15.70;;;7.70;95.50;;;;;;5039206;28;20432;-77
2021/10/17 04:50:36;;;;;;;32.67;18.47;;;7.70;95.60;;;;;;5039763;28;20423;-76
2021/10/17 04:53:02;;;;;;;33.20;18.10;;;7.70;95.80;;;;;;5050166;28;20434;-77
2021/10/17 04:55:28;;;;;;;31.93;17.17;;;7.70;95.90;;;;;;5051293;28;20423;-77
2021/10/17 04:57:53;;;;;;;31.33;17.07;;;7.70;95.80;;;;;;5033559;28;20804;-77
2021/10/17 05:00:19;;;;;;;34.30;18.07;;;7.80;95.70;;;;;;5034602;28;20424;-77
2021/10/17 05:02:45;;;;;;;32.90;17.57;;;7.80;95.50;;;;;;5034310;28;20342;-77
2021/10/17 05:05:11;;;;;;;30.00;16.23;;;7.80;95.50;;;;;;5038370;28;20248;-77
2021/10/17 05:07:36;;;;;;;28.40;16.03;;;7.90;95.50;;;;;;5039466;28;20588;-77
2021/10/17 05:10:03;;;;;;;25.17;16.07;;;7.90;95.40;;;;;;5034649;28;20189;-77
2021/10/17 05:12:29;;;;;;;27.80;16.60;;;8.00;95.10;;;;;;5033986;28;20305;-77
2021/10/17 05:14:54;;;;;;;30.63;15.60;;;8.00;95.10;;;;;;5033938;28;20807;-76
2021/10/17 05:17:20;;;;;;;29.07;17.30;;;8.00;94.80;;;;;;5032708;28;20189;-77
2021/10/17 05:19:46;;;;;;;26.33;15.93;;;8.00;94.60;;;;;;5033040;28;20189;-78
2021/10/17 05:22:11;;;;;;;30.23;17.03;;;7.90;94.60;;;;;;5034309;28;20266;-78
2021/10/17 05:24:37;;;;;;;27.80;16.27;;;7.90;94.70;;;;;;5033719;28;20182;-76
2021/10/17 05:27:03;;;;;;;30.73;17.60;;;7.90;94.80;;;;;;5032372;28;20189;-75
2021/10/17 05:29:29;;;;;;;23.73;14.90;;;7.90;94.70;;;;;;5025694;28;20235;-75
2021/10/17 05:31:54;;;;;;;28.00;16.57;;;7.90;94.70;;;;;;5032809;28;20902;-76
2021/10/17 05:34:20;;;;;;;28.63;16.67;;;7.90;94.80;;;;;;5033071;28;20192;-76
2021/10/17 05:36:46;;;;;;;28.93;16.43;;;7.90;94.80;;;;;;5033720;28;20220;-76
2021/10/17 05:39:11;;;;;;;29.77;16.87;;;7.80;94.80;;;;;;5033345;28;20265;-77
2021/10/17 05:41:37;;;;;;;35.80;18.00;;;7.70;94.80;;;;;;5033887;28;20202;-76
2021/10/17 05:44:03;;;;;;;28.70;16.73;;;7.70;94.90;;;;;;5033358;28;20205;-78
2021/10/17 05:46:29;;;;;;;32.37;17.90;;;7.60;95.00;;;;;;5032374;28;20435;-76
2021/10/17 05:48:55;;;;;;;27.57;15.70;;;7.60;95.10;;;;;;5032786;28;20428;-76
2021/10/17 05:51:21;;;;;;;30.40;18.00;;;7.50;95.10;;;;;;5032011;28;20687;-77
2021/10/17 05:53:46;;;;;;;27.30;16.20;;;7.40;95.20;;;;;;5032546;28;20655;-76
2021/10/17 05:56:12;;;;;;;29.87;15.40;;;7.30;95.30;;;;;;5034141;28;20189;-76
2021/10/17 05:58:38;;;;;;;30.77;17.23;;;7.30;95.30;;;;;;5037275;28;20270;-77
2021/10/17 06:01:03;;;;;;;27.23;16.40;;;7.20;95.40;;;;;;5043814;28;20209;-79
2021/10/17 06:03:29;;;;;;;26.27;15.07;;;7.20;95.50;;;;;;5040019;28;20217;-78
2021/10/17 06:06:00;;;;;;;27.30;15.77;;;7.20;95.50;;;;;;5038760;28;20260;-77
2021/10/17 06:08:27;;;;;;;24.63;14.70;;;7.20;95.50;;;;;;5042005;28;20185;-76
2021/10/17 06:10:54;;;;;;;29.00;16.23;;;7.30;95.40;;;;;;5040537;28;20513;-78
2021/10/17 06:13:19;;;;;;;25.37;15.43;;;7.30;95.30;;;;;;5038209;28;20452;-78
2021/10/17 06:15:45;;;;;;;25.63;15.07;;;7.30;95.30;;;;;;5037119;28;20470;-77
2021/10/17 06:18:11;;;;;;;28.67;15.83;;;7.30;95.30;;;;;;5038162;28;20196;-77
2021/10/17 06:20:36;;;;;;;27.17;15.67;;;7.30;95.10;;;;;;5037596;28;20263;-78
2021/10/17 06:23:02;;;;;;;26.30;14.10;;;7.30;95.00;;;;;;5033474;28;20236;-77
2021/10/17 06:25:28;;;;;;;27.50;14.73;;;7.30;94.80;;;;;;5032932;28;20260;-77
2021/10/17 06:27:55;;;;;;;27.97;15.17;;;7.20;94.80;;;;;;5032772;28;20303;-76
2021/10/17 06:30:21;;;;;;;26.57;15.50;;;7.20;94.90;;;;;;5032692;28;20268;-78
2021/10/17 06:32:47;;;;;;;27.03;14.97;;;7.10;95.00;;;;;;5030997;28;20547;-75
2021/10/17 06:35:13;;;;;;;24.67;16.20;;;7.20;95.20;;;;;;5030777;28;20905;-75
2021/10/17 06:37:41;;;;;;;31.13;16.50;;;7.20;95.30;;;;;;5032657;28;20419;-76
2021/10/17 06:40:08;;;;;;;25.87;14.97;;;7.20;95.30;;;;;;5031286;28;20239;-77
2021/10/17 06:42:33;;;;;;;22.73;14.63;;;7.30;95.40;;;;;;5031600;28;21275;-77
2021/10/17 06:44:59;;;;;;;24.57;14.60;;;7.30;95.50;;;;;;5033193;28;20519;-76
2021/10/17 06:47:26;;;;;;;31.67;16.47;;;7.50;95.50;;;;;;5033909;28;20207;-77
2021/10/17 06:49:52;;;;;;;31.30;16.63;;;7.50;95.10;;;;;;5039966;28;20505;-77
2021/10/17 06:52:18;;;;;;;29.33;16.30;;;7.50;95.00;;;;;;5033890;28;20225;-78
2021/10/17 06:54:43;;;;;;;28.10;16.20;;;7.50;94.90;;;;;;5031703;28;20184;-78
2021/10/17 06:57:09;;;;;;;31.60;16.80;;;7.40;94.80;;;;;;5032158;28;20193;-78
2021/10/17 06:59:35;;;;;;;31.07;17.20;;;7.30;94.90;;;;;;5031935;28;20265;-78
2021/10/17 07:02:01;;;;;;;28.03;16.20;;;7.30;95.20;;;;;;5031059;28;20301;-77
2021/10/17 07:04:26;;;;;;;27.43;15.77;;;7.40;95.10;;;;;;5031220;28;21036;-79
2021/10/17 07:06:52;;;;;;;27.70;15.67;;;7.40;95.10;;;;;;5042272;28;20424;-77
2021/10/17 07:09:18;;;;;;;30.67;16.97;;;7.50;95.00;;;;;;5031355;28;20704;-77
2021/10/17 07:11:44;;;;;;;29.30;16.43;;;7.50;94.80;;;;;;5029820;28;20599;-77
2021/10/17 07:14:10;;;;;;;30.27;16.43;;;7.60;94.80;;;;;;5031125;28;20200;-77
2021/10/17 07:16:36;;;;;;;27.73;15.97;;;7.60;94.70;;;;;;5030633;28;20428;-78
2021/10/17 07:19:02;;;;;;;33.33;18.13;;;7.60;94.80;;;;;;5028923;28;20203;-77
2021/10/17 07:21:28;;;;;;;32.77;17.73;;;7.60;94.80;;;;;;5029382;28;20448;-76
2021/10/17 07:23:53;;;;;;;32.40;16.70;;;7.70;94.90;;;;;;5032439;28;20470;-78
2021/10/17 07:26:19;;;;;;;30.60;17.83;;;7.70;94.80;;;;;;5030919;28;20943;-78
2021/10/17 07:28:45;;;;;;;37.50;18.23;;;7.90;94.90;;;;;;5032993;28;20183;-78
2021/10/17 07:31:11;;;;;;;28.17;16.47;;;7.90;94.60;;;;;;5032084;28;20209;-78
2021/10/17 07:33:37;;;;;;;39.70;21.80;;;8.00;94.40;;;;;;5030316;28;20181;-76
2021/10/17 07:36:03;;;;;;;38.50;21.53;;;8.10;94.20;;;;;;5034964;28;20239;-77
2021/10/17 07:38:29;;;;;;;34.47;18.67;;;8.20;93.90;;;;;;5039208;28;20448;-76
2021/10/17 07:40:56;;;;;;;35.13;17.87;;;8.20;93.80;;;;;;5031445;28;20451;-77
2021/10/17 07:43:22;;;;;;;30.53;16.80;;;8.30;93.70;;;;;;5042001;28;20236;-76
2021/10/17 07:45:49;;;;;;;29.20;17.33;;;8.30;93.60;;;;;;5043996;28;20431;-77
2021/10/17 07:48:15;;;;;;;31.83;17.97;;;8.30;93.60;;;;;;5043591;28;20420;-79
2021/10/17 07:50:41;;;;;;;29.67;17.80;;;8.40;93.40;;;;;;5030931;28;20800;-77
2021/10/17 07:53:06;;;;;;;31.77;16.97;;;8.40;93.20;;;;;;5031178;28;20482;-78
2021/10/17 07:55:32;;;;;;;31.30;18.03;;;8.40;92.90;;;;;;5029161;28;20902;-79
2021/10/17 07:57:58;;;;;;;29.20;17.13;;;8.40;92.90;;;;;;5030449;28;20197;-77
2021/10/17 08:00:26;;;;;;;30.57;18.70;;;8.40;93.00;;;;;;5031354;28;20203;-78
2021/10/17 08:02:53;;;;;;;36.13;17.47;;;8.50;92.90;;;;;;5030296;28;20220;-79
2021/10/17 08:05:19;;;;;;;40.77;18.77;;;8.50;92.80;;;;;;5030671;28;20442;-77
2021/10/17 08:07:46;;;;;;;36.90;20.43;;;8.50;92.80;;;;;;5028790;28;20438;-77
2021/10/17 08:10:12;;;;;;;34.87;17.03;;;8.40;92.80;;;;;;5029338;28;20436;-77
2021/10/17 08:12:39;;;;;;;27.50;16.20;;;8.40;92.90;;;;;;5030609;28;20934;-77
2021/10/17 08:15:07;;;;;;;40.37;20.10;;;8.50;93.00;;;;;;5030402;28;20753;-76
2021/10/17 08:17:34;;;;;;;39.60;21.17;;;8.60;93.00;;;;;;5030598;28;20427;-78
2021/10/17 08:20:00;;;;;;;42.00;23.47;;;8.70;93.00;;;;;;5031195;28;20435;-78
2021/10/17 08:22:26;;;;;;;33.83;20.10;;;8.80;92.90;;;;;;5033257;28;20458;-78
2021/10/17 08:24:52;;;;;;;38.57;19.37;;;8.90;92.70;;;;;;5032108;28;20431;-78
2021/10/17 08:27:18;;;;;;;32.53;17.60;;;9.00;92.50;;;;;;5030781;28;20855;-77
2021/10/17 08:29:44;;;;;;;34.70;19.13;;;9.10;92.00;;;;;;5033648;28;21245;-76
2021/10/17 08:32:10;;;;;;;35.27;19.67;;;9.20;91.50;;;;;;5033521;28;20456;-76
2021/10/17 08:34:35;;;;;;;30.10;17.70;;;9.10;91.50;;;;;;5034050;28;20434;-78
2021/10/17 08:37:01;;;;;;;35.73;19.40;;;9.10;91.60;;;;;;5035161;28;20199;-79
2021/10/17 08:39:27;;;;;;;32.43;17.27;;;9.00;91.70;;;;;;5034082;28;20204;-76
2021/10/17 08:41:53;;;;;;;32.23;16.80;;;9.10;91.80;;;;;;5036099;28;20483;-76
2021/10/17 08:44:19;;;;;;;29.77;16.40;;;9.10;91.60;;;;;;5035700;28;21004;-76
2021/10/17 08:46:46;;;;;;;29.80;16.27;;;9.00;91.40;;;;;;5036303;28;20420;-76
2021/10/17 08:49:12;;;;;;;28.63;15.20;;;9.00;91.50;;;;;;5034819;28;20515;-75
2021/10/17 08:51:38;;;;;;;30.80;16.87;;;9.00;91.60;;;;;;5036152;28;20432;-76
2021/10/17 08:54:05;;;;;;;28.87;16.20;;;9.00;91.80;;;;;;5034948;28;20481;-77
2021/10/17 08:56:32;;;;;;;33.03;17.27;;;9.00;91.70;;;;;;5034674;28;20435;-75
2021/10/17 08:58:58;;;;;;;31.50;17.00;;;8.90;91.80;;;;;;5033815;28;20428;-76
2021/10/17 09:01:32;;;;;;;29.50;17.57;;;8.80;92.20;;;;;;5035026;28;20458;-75
2021/10/17 09:03:59;;;;;;;31.67;15.90;;;8.80;92.40;;;;;;5032969;28;20463;-76
2021/10/17 09:06:32;;;;;;;31.37;17.13;;;9.00;92.50;;;;;;5034769;28;20420;-76
2021/10/17 09:09:09;;;;;;;34.30;17.70;;;8.90;92.20;;;;;;5034956;28;20428;-75
2021/10/17 09:11:44;;;;;;;30.80;18.00;;;9.00;92.30;;;;;;5036955;28;20451;-76
2021/10/17 09:14:15;;;;;;;34.57;18.03;;;9.00;92.10;;;;;;5033700;28;20515;-77
2021/10/17 09:16:43;;;;;;;34.20;16.70;;;9.10;92.20;;;;;;5033109;28;20420;-76
2021/10/17 09:19:16;;;;;;;32.57;17.80;;;9.20;92.10;;;;;;5034285;28;20519;-76
2021/10/17 09:22:06;;;;;;;34.80;17.67;;;9.30;91.60;;;;;;5034146;28;20538;-75
2021/10/17 09:24:46;;;;;;;38.97;18.60;;;9.10;91.40;;;;;;5026209;28;20501;-76
2021/10/17 09:27:17;;;;;;;33.03;17.80;;;8.90;91.90;;;;;;5033788;28;20472;-75
2021/10/17 09:29:54;;;;;;;36.30;17.80;;;8.80;92.40;;;;;;5034219;28;20509;-77
2021/10/17 09:32:26;;;;;;;38.10;18.77;;;8.80;92.80;;;;;;5031607;28;20975;-77
2021/10/17 09:34:53;;;;;;;39.17;18.57;;;8.70;93.00;;;;;;5032432;28;20488;-75
2021/10/17 09:37:18;;;;;;;38.00;19.50;;;8.70;93.30;;;;;;5032696;28;20511;-77
2021/10/17 09:39:47;;;;;;;34.80;18.07;;;8.70;93.40;;;;;;5034472;28;21010;-77
2021/10/17 09:42:20;;;;;;;35.03;19.07;;;8.60;93.60;;;;;;5035963;28;20447;-76
2021/10/17 09:44:47;;;;;;;33.93;17.73;;;8.80;93.80;;;;;;5038006;28;20767;-75
2021/10/17 09:47:13;;;;;;;38.40;19.67;;;9.00;93.70;;;;;;5039911;28;20416;-76
2021/10/17 09:49:39;;;;;;;39.13;17.87;;;9.20;93.20;;;;;;5041186;28;20770;-75
2021/10/17 09:52:22;;;;;;;31.30;17.80;;;9.40;92.50;;;;;;5037144;28;20428;-75
2021/10/17 09:55:05;;;;;;;37.60;18.70;;;9.40;91.90;;;;;;5037007;28;20412;-75
2021/10/17 09:57:30;;;;;;;31.20;17.23;;;9.40;91.90;;;;;;5031402;28;20408;-75
2021/10/17 09:59:56;;;;;;;34.13;17.90;;;9.30;91.70;;;;;;5046072;28;20415;-76
2021/10/17 10:02:24;;;;;;;38.43;18.07;;;9.30;91.80;;;;;;5037167;28;20672;-76
2021/10/17 10:04:51;;;;;;;40.67;18.47;;;9.30;92.00;;;;;;5033822;28;20196;-75
2021/10/17 10:07:25;;;;;;;31.90;19.37;;;9.20;92.10;;;;;;5032356;28;20501;-75
2021/10/17 10:09:54;;;;;;;41.47;20.50;;;9.20;92.30;;;;;;5028550;28;20481;-77
2021/10/17 10:12:22;;;;;;;38.73;18.90;;;9.20;92.40;;;;;;5033484;28;20459;-75
2021/10/17 10:14:48;;;;;;;36.20;19.13;;;9.30;92.50;;;;;;5035465;28;20493;-76
2021/10/17 10:17:16;;;;;;;41.67;19.53;;;9.30;92.30;;;;;;5038586;28;20424;-75
2021/10/17 10:19:43;;;;;;;36.43;18.00;;;9.50;92.40;;;;;;5042918;28;20503;-76
2021/10/17 10:22:09;;;;;;;36.40;18.87;;;9.60;92.10;;;;;;5043404;28;20518;-74
2021/10/17 10:24:35;;;;;;;38.77;19.80;;;9.60;91.70;;;;;;5037965;28;20456;-76
2021/10/17 10:27:03;;;;;;;43.70;20.23;;;9.70;91.80;;;;;;5033439;28;20435;-76
2021/10/17 10:29:33;;;;;;;37.67;18.53;;;9.80;91.60;;;;;;5017619;28;20474;-76
2021/10/17 10:32:03;;;;;;;33.93;17.37;;;9.90;91.50;;;;;;5032819;28;20548;-75
2021/10/17 10:34:32;;;;;;;34.40;17.80;;;10.10;91.40;;;;;;5026924;28;20419;-76
2021/10/17 10:37:12;;;;;;;35.10;19.30;;;10.20;90.60;;;;;;5031382;28;20427;-75
2021/10/17 10:40:01;;;;;;;35.40;17.37;;;10.40;90.50;;;;;;5025748;28;20530;-76
2021/10/17 10:42:40;;;;;;;37.37;19.70;;;10.60;89.70;;;;;;5030310;28;20447;-76
2021/10/17 10:45:37;;;;;;;39.40;19.77;;;10.70;89.00;;;;;;5032654;28;20412;-76
2021/10/17 10:48:11;;;;;;;34.10;18.87;;;10.70;89.20;;;;;;5032647;28;20462;-76
2021/10/17 10:50:41;;;;;;;40.13;21.33;;;10.70;88.90;;;;;;5031448;28;20455;-76
2021/10/17 10:53:09;;;;;;;38.07;20.17;;;10.80;89.00;;;;;;5040347;28;20420;-77
2021/10/17 10:55:46;;;;;;;39.67;21.87;;;10.70;88.90;;;;;;5032315;28;20943;-75
2021/10/17 10:58:25;;;;;;;38.73;20.80;;;10.60;89.00;;;;;;5032263;28;20515;-76
2021/10/17 11:00:53;;;;;;;40.27;19.77;;;10.50;89.60;;;;;;5030625;28;20447;-76
2021/10/17 11:03:20;;;;;;;44.53;21.27;;;10.50;90.10;;;;;;5031190;28;20860;-76
2021/10/17 11:06:22;;;;;;;41.67;21.37;;;10.60;90.20;;;;;;5030393;28;20424;-76
2021/10/17 11:09:21;;;;;;;42.27;20.17;;;10.80;89.60;;;;;;4986591;28;21344;-75
2021/10/17 11:11:46;;;;;;;42.60;21.40;;;10.90;89.00;;;;;;5003358;28;20444;-76
2021/10/17 11:14:15;;;;;;;39.83;19.00;;;10.80;88.60;;;;;;5008442;28;20475;-77
2021/10/17 11:16:41;;;;;;;36.40;18.80;;;10.90;89.30;;;;;;5008848;28;20194;-76
2021/10/17 11:19:08;;;;;;;36.47;19.80;;;11.10;88.70;;;;;;5008911;28;20428;-77
2021/10/17 11:21:34;;;;;;;39.17;20.03;;;11.20;88.40;;;;;;5009664;28;20209;-77
2021/10/17 11:24:00;;;;;;;38.33;20.50;;;11.10;88.00;;;;;;5010279;28;20508;-76
2021/10/17 11:26:26;;;;;;;42.03;20.53;;;11.10;88.60;;;;;;5011108;28;20467;-76
2021/10/17 11:28:51;;;;;;;34.70;18.63;;;11.10;88.70;;;;;;5020141;28;20419;-75
2021/10/17 11:31:29;;;;;;;35.23;19.43;;;11.20;88.90;;;;;;4996992;28;20274;-75
2021/10/17 11:33:56;;;;;;;33.97;19.03;;;11.40;88.30;;;;;;5019566;28;20189;-74
2021/10/17 11:36:22;;;;;;;35.23;20.23;;;11.30;88.40;;;;;;5011503;28;20448;-75
2021/10/17 11:38:53;;;;;;;34.00;18.40;;;11.40;88.30;;;;;;5005888;28;20451;-75
2021/10/17 11:41:18;;;;;;;34.83;18.30;;;11.40;88.40;;;;;;5014658;28;20267;-76
2021/10/17 11:43:50;;;;;;;34.40;18.87;;;11.20;88.40;;;;;;5030718;28;20572;-77
2021/10/17 11:46:27;;;;;;;39.67;19.57;;;11.20;89.00;;;;;;5032748;28;20185;-75
2021/10/17 11:49:12;;;;;;;39.30;17.63;;;11.30;89.20;;;;;;5031452;28;20427;-76
2021/10/17 11:51:37;;;;;;;32.23;18.10;;;11.20;89.00;;;;;;5031015;28;20443;-75
2021/10/17 11:54:03;;;;;;;36.93;19.27;;;11.20;89.30;;;;;;5033658;28;21097;-75
2021/10/17 11:56:29;;;;;;;36.53;18.87;;;11.30;89.20;;;;;;5036553;28;20200;-77
2021/10/17 11:58:55;;;;;;;34.47;18.17;;;11.30;89.00;;;;;;5035596;28;20184;-76
2021/10/17 12:01:21;;;;;;;34.47;18.97;;;11.30;89.20;;;;;;5034934;28;20811;-76
2021/10/17 12:03:56;;;;;;;33.17;17.37;;;11.40;89.00;;;;;;5036013;28;20208;-76
2021/10/17 12:06:22;;;;;;;35.83;17.90;;;11.40;88.90;;;;;;5036051;28;20232;-77
2021/10/17 12:09:02;;;;;;;31.50;16.70;;;11.40;89.20;;;;;;5036497;28;20424;-77
2021/10/17 12:11:29;;;;;;;34.00;17.40;;;11.40;89.30;;;;;;5034816;28;20454;-75
2021/10/17 12:13:57;;;;;;;34.47;20.03;;;11.40;89.00;;;;;;5034691;28;21137;-76
2021/10/17 12:16:25;;;;;;;36.23;18.67;;;11.30;89.00;;;;;;5032601;28;20439;-76
2021/10/17 12:18:59;;;;;;;36.03;18.40;;;11.20;89.60;;;;;;5033625;28;20474;-75
2021/10/17 12:21:27;;;;;;;30.80;17.10;;;11.10;89.90;;;;;;5025494;28;20452;-75
2021/10/17 12:23:53;;;;;;;34.60;19.00;;;11.10;90.20;;;;;;5031760;28;20537;-75
2021/10/17 12:26:28;;;;;;;35.30;19.03;;;11.10;90.10;;;;;;5031301;28;20423;-75
2021/10/17 12:29:14;;;;;;;85.50;43.73;;;11.10;90.00;;;;;;5032575;28;20446;-77
2021/10/17 12:31:41;;;;;;;42.13;23.23;;;11.30;90.10;;;;;;5032608;28;20505;-76
2021/10/17 12:34:08;;;;;;;36.43;19.23;;;11.50;89.50;;;;;;5024999;28;20492;-75
2021/10/17 12:36:35;;;;;;;34.60;18.87;;;11.70;88.90;;;;;;5031834;28;20427;-75